sensor_id;sensor_type;location;lat;lon;timestamp;P1;durP1;ratioP1;P2;durP2;ratioP2
23169;SDS011;11753;43.144;24.714;2023-04-24T00:00:17;13.45;;;6.25;;
23169;SDS011;11753;43.144;24.714;2023-04-24T00:01:18;9.73;;;5.95;;
23169;SDS011;11753;43.144;24.714;2023-04-24T00:02:19;10.52;;;5.30;;
23169;SDS011;11753;43.144;24.714;2023-04-24T00:03:20;9.38;;;5.60;;
23169;SDS011;11753;43.144;24.714;2023-04-24T00:04:21;12.27;;;5.93;;
23169;SDS011;11753;43.144;24.714;2023-04-24T00:05:23;7.55;;;5.18;;
23169;SDS011;11753;43.144;24.714;2023-04-24T00:06:25;9.38;;;5.55;;
23169;SDS011;11753;43.144;24.714;2023-04-24T00:07:33;8.35;;;5.50;;
23169;SDS011;11753;43.144;24.714;2023-04-24T00:08:35;8.10;;;5.32;;
23169;SDS011;11753;43.144;24.714;2023-04-24T00:09:36;13.35;;;5.72;;
23169;SDS011;11753;43.144;24.714;2023-04-24T00:10:37;10.57;;;5.82;;
23169;SDS011;11753;43.144;24.714;2023-04-24T00:11:38;7.53;;;5.88;;
23169;SDS011;11753;43.144;24.714;2023-04-24T00:12:39;9.63;;;5.90;;
23169;SDS011;11753;43.144;24.714;2023-04-24T00:13:40;10.63;;;5.95;;
23169;SDS011;11753;43.144;24.714;2023-04-24T00:14:41;8.88;;;5.72;;
23169;SDS011;11753;43.144;24.714;2023-04-24T00:15:42;9.77;;;5.82;;
23169;SDS011;11753;43.144;24.714;2023-04-24T00:16:43;9.77;;;5.95;;
23169;SDS011;11753;43.144;24.714;2023-04-24T00:17:44;11.95;;;6.43;;
23169;SDS011;11753;43.144;24.714;2023-04-24T00:18:45;8.90;;;5.38;;
23169;SDS011;11753;43.144;24.714;2023-04-24T00:19:48;8.80;;;5.72;;
23169;SDS011;11753;43.144;24.714;2023-04-24T00:20:51;9.27;;;5.40;;
23169;SDS011;11753;43.144;24.714;2023-04-24T00:21:52;9.43;;;5.43;;
23169;SDS011;11753;43.144;24.714;2023-04-24T00:22:53;8.88;;;5.55;;
23169;SDS011;11753;43.144;24.714;2023-04-24T00:23:54;9.82;;;5.97;;
23169;SDS011;11753;43.144;24.714;2023-04-24T00:24:55;6.85;;;5.35;;
23169;SDS011;11753;43.144;24.714;2023-04-24T00:25:55;7.03;;;5.32;;
23169;SDS011;11753;43.144;24.714;2023-04-24T00:26:57;9.63;;;6.18;;
23169;SDS011;11753;43.144;24.714;2023-04-24T00:27:58;8.27;;;6.18;;
23169;SDS011;11753;43.144;24.714;2023-04-24T00:28:59;9.05;;;6.20;;
23169;SDS011;11753;43.144;24.714;2023-04-24T00:29:59;8.27;;;5.32;;
23169;SDS011;11753;43.144;24.714;2023-04-24T00:31:01;8.93;;;5.47;;
23169;SDS011;11753;43.144;24.714;2023-04-24T00:32:02;8.38;;;5.60;;
23169;SDS011;11753;43.144;24.714;2023-04-24T00:33:03;9.20;;;5.75;;
23169;SDS011;11753;43.144;24.714;2023-04-24T00:34:04;10.50;;;5.75;;
23169;SDS011;11753;43.144;24.714;2023-04-24T00:35:06;10.15;;;5.00;;
23169;SDS011;11753;43.144;24.714;2023-04-24T00:36:07;7.05;;;5.13;;
23169;SDS011;11753;43.144;24.714;2023-04-24T00:37:08;7.93;;;5.55;;
23169;SDS011;11753;43.144;24.714;2023-04-24T00:38:09;7.72;;;4.97;;
23169;SDS011;11753;43.144;24.714;2023-04-24T00:39:10;7.30;;;4.47;;
23169;SDS011;11753;43.144;24.714;2023-04-24T00:40:10;8.25;;;5.30;;
23169;SDS011;11753;43.144;24.714;2023-04-24T00:41:13;12.05;;;5.38;;
23169;SDS011;11753;43.144;24.714;2023-04-24T00:42:14;7.53;;;5.10;;
23169;SDS011;11753;43.144;24.714;2023-04-24T00:43:16;10.25;;;5.85;;
23169;SDS011;11753;43.144;24.714;2023-04-24T00:44:17;10.70;;;5.15;;
23169;SDS011;11753;43.144;24.714;2023-04-24T00:45:18;9.40;;;5.25;;
23169;SDS011;11753;43.144;24.714;2023-04-24T00:46:20;7.97;;;5.25;;
23169;SDS011;11753;43.144;24.714;2023-04-24T00:47:21;21.58;;;9.18;;
23169;SDS011;11753;43.144;24.714;2023-04-24T00:48:22;16.55;;;6.90;;
23169;SDS011;11753;43.144;24.714;2023-04-24T00:49:25;13.63;;;6.72;;
23169;SDS011;11753;43.144;24.714;2023-04-24T00:50:27;13.02;;;7.25;;
23169;SDS011;11753;43.144;24.714;2023-04-24T00:51:29;12.32;;;6.32;;
23169;SDS011;11753;43.144;24.714;2023-04-24T00:52:31;8.68;;;5.90;;
23169;SDS011;11753;43.144;24.714;2023-04-24T00:53:33;11.10;;;6.07;;
23169;SDS011;11753;43.144;24.714;2023-04-24T00:54:34;9.90;;;5.55;;
23169;SDS011;11753;43.144;24.714;2023-04-24T00:55:36;9.15;;;5.22;;
23169;SDS011;11753;43.144;24.714;2023-04-24T00:56:37;9.50;;;5.40;;
23169;SDS011;11753;43.144;24.714;2023-04-24T00:57:38;9.63;;;5.90;;
23169;SDS011;11753;43.144;24.714;2023-04-24T00:58:43;8.95;;;4.93;;
23169;SDS011;11753;43.144;24.714;2023-04-24T00:59:45;12.43;;;5.50;;
23169;SDS011;11753;43.144;24.714;2023-04-24T01:00:46;9.48;;;5.43;;
23169;SDS011;11753;43.144;24.714;2023-04-24T01:01:53;11.48;;;5.95;;
23169;SDS011;11753;43.144;24.714;2023-04-24T01:02:54;8.80;;;5.82;;
23169;SDS011;11753;43.144;24.714;2023-04-24T01:03:55;9.32;;;5.22;;
23169;SDS011;11753;43.144;24.714;2023-04-24T01:04:57;8.65;;;5.40;;
23169;SDS011;11753;43.144;24.714;2023-04-24T01:05:58;9.40;;;5.55;;
23169;SDS011;11753;43.144;24.714;2023-04-24T01:07:00;8.10;;;5.72;;
23169;SDS011;11753;43.144;24.714;2023-04-24T01:08:02;11.32;;;6.05;;
23169;SDS011;11753;43.144;24.714;2023-04-24T01:09:03;10.00;;;5.88;;
23169;SDS011;11753;43.144;24.714;2023-04-24T01:10:04;11.40;;;6.10;;
23169;SDS011;11753;43.144;24.714;2023-04-24T01:11:07;8.90;;;6.15;;
23169;SDS011;11753;43.144;24.714;2023-04-24T01:12:11;9.27;;;6.03;;
23169;SDS011;11753;43.144;24.714;2023-04-24T01:13:13;10.55;;;6.50;;
23169;SDS011;11753;43.144;24.714;2023-04-24T01:14:14;10.43;;;6.50;;
23169;SDS011;11753;43.144;24.714;2023-04-24T01:15:15;12.02;;;6.57;;
23169;SDS011;11753;43.144;24.714;2023-04-24T01:16:16;10.07;;;6.50;;
23169;SDS011;11753;43.144;24.714;2023-04-24T01:17:20;12.10;;;6.07;;
23169;SDS011;11753;43.144;24.714;2023-04-24T01:18:21;11.20;;;7.03;;
23169;SDS011;11753;43.144;24.714;2023-04-24T01:19:24;10.32;;;6.47;;
23169;SDS011;11753;43.144;24.714;2023-04-24T01:20:25;12.02;;;6.50;;
23169;SDS011;11753;43.144;24.714;2023-04-24T01:21:27;10.10;;;6.50;;
23169;SDS011;11753;43.144;24.714;2023-04-24T01:22:33;8.88;;;5.75;;
23169;SDS011;11753;43.144;24.714;2023-04-24T01:23:37;9.40;;;5.82;;
23169;SDS011;11753;43.144;24.714;2023-04-24T01:24:38;8.68;;;5.90;;
23169;SDS011;11753;43.144;24.714;2023-04-24T01:25:39;9.30;;;5.90;;
23169;SDS011;11753;43.144;24.714;2023-04-24T01:26:41;8.95;;;5.50;;
23169;SDS011;11753;43.144;24.714;2023-04-24T01:27:42;9.20;;;5.57;;
23169;SDS011;11753;43.144;24.714;2023-04-24T01:28:43;7.75;;;5.50;;
23169;SDS011;11753;43.144;24.714;2023-04-24T01:29:44;9.07;;;6.05;;
23169;SDS011;11753;43.144;24.714;2023-04-24T01:30:49;9.50;;;5.63;;
23169;SDS011;11753;43.144;24.714;2023-04-24T01:31:50;8.38;;;5.65;;
23169;SDS011;11753;43.144;24.714;2023-04-24T01:32:52;10.00;;;5.50;;
23169;SDS011;11753;43.144;24.714;2023-04-24T01:33:53;8.27;;;5.18;;
23169;SDS011;11753;43.144;24.714;2023-04-24T01:34:56;9.45;;;5.70;;
23169;SDS011;11753;43.144;24.714;2023-04-24T01:35:58;10.60;;;6.15;;
23169;SDS011;11753;43.144;24.714;2023-04-24T01:36:59;10.32;;;5.50;;
23169;SDS011;11753;43.144;24.714;2023-04-24T01:38:01;8.20;;;5.80;;
23169;SDS011;11753;43.144;24.714;2023-04-24T01:39:02;9.75;;;5.57;;
23169;SDS011;11753;43.144;24.714;2023-04-24T01:40:06;8.02;;;5.35;;
23169;SDS011;11753;43.144;24.714;2023-04-24T01:41:08;9.35;;;5.03;;
23169;SDS011;11753;43.144;24.714;2023-04-24T01:42:09;8.07;;;4.95;;
23169;SDS011;11753;43.144;24.714;2023-04-24T01:43:09;7.78;;;4.90;;
23169;SDS011;11753;43.144;24.714;2023-04-24T01:44:11;8.32;;;5.13;;
23169;SDS011;11753;43.144;24.714;2023-04-24T01:45:12;7.90;;;5.10;;
23169;SDS011;11753;43.144;24.714;2023-04-24T01:46:13;8.00;;;5.20;;
23169;SDS011;11753;43.144;24.714;2023-04-24T01:47:14;9.02;;;4.90;;
23169;SDS011;11753;43.144;24.714;2023-04-24T01:48:15;9.77;;;5.00;;
23169;SDS011;11753;43.144;24.714;2023-04-24T01:49:17;7.10;;;4.88;;
23169;SDS011;11753;43.144;24.714;2023-04-24T01:50:21;11.20;;;5.53;;
23169;SDS011;11753;43.144;24.714;2023-04-24T01:51:22;10.80;;;5.80;;
23169;SDS011;11753;43.144;24.714;2023-04-24T01:52:23;9.60;;;5.20;;
23169;SDS011;11753;43.144;24.714;2023-04-24T01:53:24;9.63;;;5.15;;
23169;SDS011;11753;43.144;24.714;2023-04-24T01:54:25;9.25;;;4.95;;
23169;SDS011;11753;43.144;24.714;2023-04-24T01:55:26;12.18;;;5.35;;
23169;SDS011;11753;43.144;24.714;2023-04-24T01:56:30;9.40;;;4.90;;
23169;SDS011;11753;43.144;24.714;2023-04-24T01:57:35;9.63;;;5.45;;
23169;SDS011;11753;43.144;24.714;2023-04-24T01:58:36;7.82;;;5.25;;
23169;SDS011;11753;43.144;24.714;2023-04-24T01:59:37;9.05;;;5.10;;
23169;SDS011;11753;43.144;24.714;2023-04-24T02:00:38;8.95;;;4.85;;
23169;SDS011;11753;43.144;24.714;2023-04-24T02:01:39;9.23;;;5.15;;
23169;SDS011;11753;43.144;24.714;2023-04-24T02:02:40;7.25;;;5.03;;
23169;SDS011;11753;43.144;24.714;2023-04-24T02:03:42;8.10;;;5.15;;
23169;SDS011;11753;43.144;24.714;2023-04-24T02:04:46;10.95;;;6.18;;
23169;SDS011;11753;43.144;24.714;2023-04-24T02:05:47;11.10;;;5.82;;
23169;SDS011;11753;43.144;24.714;2023-04-24T02:06:48;12.88;;;5.65;;
23169;SDS011;11753;43.144;24.714;2023-04-24T02:07:49;9.60;;;6.13;;
23169;SDS011;11753;43.144;24.714;2023-04-24T02:08:49;10.68;;;5.57;;
23169;SDS011;11753;43.144;24.714;2023-04-24T02:09:50;11.50;;;6.03;;
23169;SDS011;11753;43.144;24.714;2023-04-24T02:10:50;9.68;;;5.55;;
23169;SDS011;11753;43.144;24.714;2023-04-24T02:11:52;11.63;;;5.53;;
23169;SDS011;11753;43.144;24.714;2023-04-24T02:12:53;11.77;;;6.32;;
23169;SDS011;11753;43.144;24.714;2023-04-24T02:13:54;10.32;;;5.97;;
23169;SDS011;11753;43.144;24.714;2023-04-24T02:14:55;9.30;;;6.22;;
23169;SDS011;11753;43.144;24.714;2023-04-24T02:15:56;9.30;;;5.60;;
23169;SDS011;11753;43.144;24.714;2023-04-24T02:16:58;11.45;;;5.63;;
23169;SDS011;11753;43.144;24.714;2023-04-24T02:18:01;10.30;;;5.85;;
23169;SDS011;11753;43.144;24.714;2023-04-24T02:19:02;8.52;;;5.88;;
23169;SDS011;11753;43.144;24.714;2023-04-24T02:20:04;11.25;;;6.00;;
23169;SDS011;11753;43.144;24.714;2023-04-24T02:21:06;11.07;;;5.93;;
23169;SDS011;11753;43.144;24.714;2023-04-24T02:22:07;11.25;;;5.85;;
23169;SDS011;11753;43.144;24.714;2023-04-24T02:23:08;10.55;;;6.10;;
23169;SDS011;11753;43.144;24.714;2023-04-24T02:24:09;9.60;;;5.78;;
23169;SDS011;11753;43.144;24.714;2023-04-24T02:25:10;11.23;;;5.88;;
23169;SDS011;11753;43.144;24.714;2023-04-24T02:26:11;12.60;;;5.95;;
23169;SDS011;11753;43.144;24.714;2023-04-24T02:27:14;10.80;;;6.32;;
23169;SDS011;11753;43.144;24.714;2023-04-24T02:28:17;12.48;;;6.38;;
23169;SDS011;11753;43.144;24.714;2023-04-24T02:29:20;12.90;;;5.88;;
23169;SDS011;11753;43.144;24.714;2023-04-24T02:30:21;11.15;;;6.10;;
23169;SDS011;11753;43.144;24.714;2023-04-24T02:31:22;10.98;;;6.18;;
23169;SDS011;11753;43.144;24.714;2023-04-24T02:32:23;8.63;;;5.85;;
23169;SDS011;11753;43.144;24.714;2023-04-24T02:33:24;10.68;;;5.97;;
23169;SDS011;11753;43.144;24.714;2023-04-24T02:34:25;10.05;;;6.25;;
23169;SDS011;11753;43.144;24.714;2023-04-24T02:35:26;9.85;;;6.30;;
23169;SDS011;11753;43.144;24.714;2023-04-24T02:36:29;9.75;;;6.50;;
23169;SDS011;11753;43.144;24.714;2023-04-24T02:37:30;11.30;;;6.05;;
23169;SDS011;11753;43.144;24.714;2023-04-24T02:38:31;8.50;;;6.22;;
23169;SDS011;11753;43.144;24.714;2023-04-24T02:39:33;10.98;;;5.75;;
23169;SDS011;11753;43.144;24.714;2023-04-24T02:40:34;9.60;;;7.13;;
23169;SDS011;11753;43.144;24.714;2023-04-24T02:41:35;10.98;;;6.53;;
23169;SDS011;11753;43.144;24.714;2023-04-24T02:42:35;11.68;;;6.70;;
23169;SDS011;11753;43.144;24.714;2023-04-24T02:43:36;16.92;;;6.85;;
23169;SDS011;11753;43.144;24.714;2023-04-24T02:44:37;9.73;;;6.40;;
23169;SDS011;11753;43.144;24.714;2023-04-24T02:45:37;9.30;;;6.15;;
23169;SDS011;11753;43.144;24.714;2023-04-24T02:46:38;9.77;;;5.80;;
23169;SDS011;11753;43.144;24.714;2023-04-24T02:47:41;9.93;;;6.75;;
23169;SDS011;11753;43.144;24.714;2023-04-24T02:48:42;10.75;;;6.45;;
23169;SDS011;11753;43.144;24.714;2023-04-24T02:49:43;10.50;;;6.32;;
23169;SDS011;11753;43.144;24.714;2023-04-24T02:50:44;9.10;;;6.63;;
23169;SDS011;11753;43.144;24.714;2023-04-24T02:51:45;10.10;;;6.25;;
23169;SDS011;11753;43.144;24.714;2023-04-24T02:52:46;10.75;;;6.57;;
23169;SDS011;11753;43.144;24.714;2023-04-24T02:53:47;11.07;;;6.30;;
23169;SDS011;11753;43.144;24.714;2023-04-24T02:54:49;11.90;;;7.30;;
23169;SDS011;11753;43.144;24.714;2023-04-24T02:55:57;11.23;;;6.78;;
23169;SDS011;11753;43.144;24.714;2023-04-24T02:56:58;11.27;;;6.38;;
23169;SDS011;11753;43.144;24.714;2023-04-24T02:57:59;9.77;;;6.57;;
23169;SDS011;11753;43.144;24.714;2023-04-24T02:59:00;11.40;;;6.60;;
23169;SDS011;11753;43.144;24.714;2023-04-24T03:00:01;10.25;;;6.78;;
23169;SDS011;11753;43.144;24.714;2023-04-24T03:01:03;11.00;;;7.13;;
23169;SDS011;11753;43.144;24.714;2023-04-24T03:02:05;10.80;;;6.95;;
23169;SDS011;11753;43.144;24.714;2023-04-24T03:03:05;11.35;;;6.57;;
23169;SDS011;11753;43.144;24.714;2023-04-24T03:04:07;12.43;;;6.63;;
23169;SDS011;11753;43.144;24.714;2023-04-24T03:05:08;14.90;;;7.47;;
23169;SDS011;11753;43.144;24.714;2023-04-24T03:06:09;10.98;;;6.35;;
23169;SDS011;11753;43.144;24.714;2023-04-24T03:07:10;10.63;;;7.15;;
23169;SDS011;11753;43.144;24.714;2023-04-24T03:08:11;12.65;;;6.47;;
23169;SDS011;11753;43.144;24.714;2023-04-24T03:09:11;10.90;;;6.50;;
23169;SDS011;11753;43.144;24.714;2023-04-24T03:10:13;10.63;;;6.45;;
23169;SDS011;11753;43.144;24.714;2023-04-24T03:11:14;9.48;;;6.78;;
23169;SDS011;11753;43.144;24.714;2023-04-24T03:12:15;11.35;;;6.35;;
23169;SDS011;11753;43.144;24.714;2023-04-24T03:13:18;11.10;;;7.28;;
23169;SDS011;11753;43.144;24.714;2023-04-24T03:14:19;10.88;;;7.13;;
23169;SDS011;11753;43.144;24.714;2023-04-24T03:15:20;13.98;;;6.97;;
23169;SDS011;11753;43.144;24.714;2023-04-24T03:16:21;11.00;;;8.07;;
23169;SDS011;11753;43.144;24.714;2023-04-24T03:17:23;10.18;;;7.22;;
23169;SDS011;11753;43.144;24.714;2023-04-24T03:18:24;9.75;;;6.68;;
23169;SDS011;11753;43.144;24.714;2023-04-24T03:19:25;10.38;;;7.50;;
23169;SDS011;11753;43.144;24.714;2023-04-24T03:20:26;13.20;;;7.32;;
23169;SDS011;11753;43.144;24.714;2023-04-24T03:21:28;12.02;;;7.55;;
23169;SDS011;11753;43.144;24.714;2023-04-24T03:22:29;10.43;;;7.32;;
23169;SDS011;11753;43.144;24.714;2023-04-24T03:23:30;12.25;;;7.80;;
23169;SDS011;11753;43.144;24.714;2023-04-24T03:24:33;15.93;;;7.53;;
23169;SDS011;11753;43.144;24.714;2023-04-24T03:25:34;11.23;;;7.45;;
23169;SDS011;11753;43.144;24.714;2023-04-24T03:26:34;12.85;;;7.07;;
23169;SDS011;11753;43.144;24.714;2023-04-24T03:27:35;11.55;;;6.88;;
23169;SDS011;11753;43.144;24.714;2023-04-24T03:28:40;11.95;;;7.07;;
23169;SDS011;11753;43.144;24.714;2023-04-24T03:29:41;10.82;;;7.00;;
23169;SDS011;11753;43.144;24.714;2023-04-24T03:30:42;11.60;;;7.25;;
23169;SDS011;11753;43.144;24.714;2023-04-24T03:31:42;12.63;;;8.38;;
23169;SDS011;11753;43.144;24.714;2023-04-24T03:32:43;18.60;;;10.15;;
23169;SDS011;11753;43.144;24.714;2023-04-24T03:33:44;12.23;;;7.95;;
23169;SDS011;11753;43.144;24.714;2023-04-24T03:34:45;57.78;;;30.67;;
23169;SDS011;11753;43.144;24.714;2023-04-24T03:35:46;18.02;;;10.73;;
23169;SDS011;11753;43.144;24.714;2023-04-24T03:36:47;12.73;;;7.93;;
23169;SDS011;11753;43.144;24.714;2023-04-24T03:37:48;61.58;;;30.20;;
23169;SDS011;11753;43.144;24.714;2023-04-24T03:38:49;14.02;;;7.90;;
23169;SDS011;11753;43.144;24.714;2023-04-24T03:39:50;43.72;;;20.98;;
23169;SDS011;11753;43.144;24.714;2023-04-24T03:40:51;22.60;;;11.43;;
23169;SDS011;11753;43.144;24.714;2023-04-24T03:41:52;15.93;;;10.23;;
23169;SDS011;11753;43.144;24.714;2023-04-24T03:42:52;15.77;;;10.68;;
23169;SDS011;11753;43.144;24.714;2023-04-24T03:43:53;18.55;;;12.30;;
23169;SDS011;11753;43.144;24.714;2023-04-24T03:44:55;19.45;;;11.63;;
23169;SDS011;11753;43.144;24.714;2023-04-24T03:45:58;14.85;;;9.30;;
23169;SDS011;11753;43.144;24.714;2023-04-24T03:46:58;15.30;;;7.80;;
23169;SDS011;11753;43.144;24.714;2023-04-24T03:48:00;11.98;;;7.00;;
23169;SDS011;11753;43.144;24.714;2023-04-24T03:49:01;12.40;;;7.35;;
23169;SDS011;11753;43.144;24.714;2023-04-24T03:50:02;13.45;;;6.88;;
23169;SDS011;11753;43.144;24.714;2023-04-24T03:51:03;10.45;;;6.78;;
23169;SDS011;11753;43.144;24.714;2023-04-24T03:52:04;12.43;;;6.80;;
23169;SDS011;11753;43.144;24.714;2023-04-24T03:53:05;11.88;;;7.20;;
23169;SDS011;11753;43.144;24.714;2023-04-24T03:54:06;11.52;;;7.40;;
23169;SDS011;11753;43.144;24.714;2023-04-24T03:55:07;13.65;;;7.70;;
23169;SDS011;11753;43.144;24.714;2023-04-24T03:56:08;12.70;;;7.20;;
23169;SDS011;11753;43.144;24.714;2023-04-24T03:57:09;10.02;;;6.78;;
23169;SDS011;11753;43.144;24.714;2023-04-24T03:58:09;12.98;;;7.43;;
23169;SDS011;11753;43.144;24.714;2023-04-24T03:59:11;13.30;;;7.50;;
23169;SDS011;11753;43.144;24.714;2023-04-24T04:00:12;13.07;;;7.63;;
23169;SDS011;11753;43.144;24.714;2023-04-24T04:01:13;8.70;;;6.43;;
23169;SDS011;11753;43.144;24.714;2023-04-24T04:02:16;14.95;;;7.20;;
23169;SDS011;11753;43.144;24.714;2023-04-24T04:03:17;30.23;;;20.33;;
23169;SDS011;11753;43.144;24.714;2023-04-24T04:04:18;12.85;;;8.23;;
23169;SDS011;11753;43.144;24.714;2023-04-24T04:05:19;13.27;;;7.22;;
23169;SDS011;11753;43.144;24.714;2023-04-24T04:06:20;13.05;;;8.02;;
23169;SDS011;11753;43.144;24.714;2023-04-24T04:07:21;10.93;;;6.95;;
23169;SDS011;11753;43.144;24.714;2023-04-24T04:08:23;12.45;;;7.15;;
23169;SDS011;11753;43.144;24.714;2023-04-24T04:09:24;9.82;;;7.07;;
23169;SDS011;11753;43.144;24.714;2023-04-24T04:10:25;13.20;;;7.15;;
23169;SDS011;11753;43.144;24.714;2023-04-24T04:11:26;11.35;;;6.75;;
23169;SDS011;11753;43.144;24.714;2023-04-24T04:12:27;8.95;;;6.47;;
23169;SDS011;11753;43.144;24.714;2023-04-24T04:13:28;10.25;;;6.82;;
23169;SDS011;11753;43.144;24.714;2023-04-24T04:14:28;9.05;;;6.05;;
23169;SDS011;11753;43.144;24.714;2023-04-24T04:15:30;57.03;;;34.72;;
23169;SDS011;11753;43.144;24.714;2023-04-24T04:16:30;40.10;;;23.35;;
23169;SDS011;11753;43.144;24.714;2023-04-24T04:17:31;45.92;;;25.42;;
23169;SDS011;11753;43.144;24.714;2023-04-24T04:18:32;31.02;;;19.45;;
23169;SDS011;11753;43.144;24.714;2023-04-24T04:19:33;18.83;;;11.18;;
23169;SDS011;11753;43.144;24.714;2023-04-24T04:20:34;11.15;;;7.70;;
23169;SDS011;11753;43.144;24.714;2023-04-24T04:21:34;12.18;;;6.88;;
23169;SDS011;11753;43.144;24.714;2023-04-24T04:22:35;10.77;;;6.75;;
23169;SDS011;11753;43.144;24.714;2023-04-24T04:23:36;11.23;;;6.93;;
23169;SDS011;11753;43.144;24.714;2023-04-24T04:24:37;9.95;;;6.53;;
23169;SDS011;11753;43.144;24.714;2023-04-24T04:25:38;10.30;;;6.00;;
23169;SDS011;11753;43.144;24.714;2023-04-24T04:26:39;10.98;;;6.13;;
23169;SDS011;11753;43.144;24.714;2023-04-24T04:27:41;12.00;;;6.30;;
23169;SDS011;11753;43.144;24.714;2023-04-24T04:28:42;10.07;;;6.07;;
23169;SDS011;11753;43.144;24.714;2023-04-24T04:29:45;12.57;;;6.88;;
23169;SDS011;11753;43.144;24.714;2023-04-24T04:30:46;10.60;;;6.90;;
23169;SDS011;11753;43.144;24.714;2023-04-24T04:31:47;9.93;;;6.60;;
23169;SDS011;11753;43.144;24.714;2023-04-24T04:32:48;9.75;;;6.78;;
23169;SDS011;11753;43.144;24.714;2023-04-24T04:33:49;10.50;;;6.55;;
23169;SDS011;11753;43.144;24.714;2023-04-24T04:34:51;12.50;;;6.15;;
23169;SDS011;11753;43.144;24.714;2023-04-24T04:35:53;10.30;;;6.28;;
23169;SDS011;11753;43.144;24.714;2023-04-24T04:36:59;12.57;;;6.82;;
23169;SDS011;11753;43.144;24.714;2023-04-24T04:38:02;11.88;;;6.93;;
23169;SDS011;11753;43.144;24.714;2023-04-24T04:39:03;15.20;;;7.90;;
23169;SDS011;11753;43.144;24.714;2023-04-24T04:40:04;13.38;;;8.35;;
23169;SDS011;11753;43.144;24.714;2023-04-24T04:41:11;14.23;;;7.97;;
23169;SDS011;11753;43.144;24.714;2023-04-24T04:42:12;9.77;;;7.03;;
23169;SDS011;11753;43.144;24.714;2023-04-24T04:43:14;10.95;;;6.35;;
23169;SDS011;11753;43.144;24.714;2023-04-24T04:44:18;10.75;;;7.10;;
23169;SDS011;11753;43.144;24.714;2023-04-24T04:45:21;11.30;;;6.75;;
23169;SDS011;11753;43.144;24.714;2023-04-24T04:46:22;9.18;;;6.68;;
23169;SDS011;11753;43.144;24.714;2023-04-24T04:47:26;12.20;;;6.82;;
23169;SDS011;11753;43.144;24.714;2023-04-24T04:48:28;10.68;;;6.38;;
23169;SDS011;11753;43.144;24.714;2023-04-24T04:49:32;9.93;;;6.40;;
23169;SDS011;11753;43.144;24.714;2023-04-24T04:50:32;11.65;;;6.50;;
23169;SDS011;11753;43.144;24.714;2023-04-24T04:51:34;9.98;;;6.78;;
23169;SDS011;11753;43.144;24.714;2023-04-24T04:52:35;12.63;;;6.15;;
23169;SDS011;11753;43.144;24.714;2023-04-24T04:53:36;10.70;;;6.45;;
23169;SDS011;11753;43.144;24.714;2023-04-24T04:54:37;9.07;;;6.53;;
23169;SDS011;11753;43.144;24.714;2023-04-24T04:55:38;11.90;;;6.47;;
23169;SDS011;11753;43.144;24.714;2023-04-24T04:56:39;10.63;;;6.85;;
23169;SDS011;11753;43.144;24.714;2023-04-24T04:57:40;8.80;;;6.20;;
23169;SDS011;11753;43.144;24.714;2023-04-24T04:58:41;11.85;;;6.82;;
23169;SDS011;11753;43.144;24.714;2023-04-24T04:59:42;8.80;;;6.47;;
23169;SDS011;11753;43.144;24.714;2023-04-24T05:00:42;10.45;;;6.93;;
23169;SDS011;11753;43.144;24.714;2023-04-24T05:01:43;12.48;;;6.97;;
23169;SDS011;11753;43.144;24.714;2023-04-24T05:02:44;9.15;;;6.97;;
23169;SDS011;11753;43.144;24.714;2023-04-24T05:03:45;15.07;;;9.27;;
23169;SDS011;11753;43.144;24.714;2023-04-24T05:04:46;14.23;;;8.35;;
23169;SDS011;11753;43.144;24.714;2023-04-24T05:05:47;11.82;;;7.93;;
23169;SDS011;11753;43.144;24.714;2023-04-24T05:06:48;39.05;;;21.73;;
23169;SDS011;11753;43.144;24.714;2023-04-24T05:07:49;31.08;;;18.35;;
23169;SDS011;11753;43.144;24.714;2023-04-24T05:08:50;25.27;;;15.75;;
23169;SDS011;11753;43.144;24.714;2023-04-24T05:09:51;32.75;;;19.05;;
23169;SDS011;11753;43.144;24.714;2023-04-24T05:10:52;23.27;;;13.13;;
23169;SDS011;11753;43.144;24.714;2023-04-24T05:11:55;19.05;;;11.40;;
23169;SDS011;11753;43.144;24.714;2023-04-24T05:12:56;18.52;;;11.45;;
23169;SDS011;11753;43.144;24.714;2023-04-24T05:13:56;20.77;;;11.38;;
23169;SDS011;11753;43.144;24.714;2023-04-24T05:14:57;20.17;;;12.63;;
23169;SDS011;11753;43.144;24.714;2023-04-24T05:15:58;20.15;;;12.32;;
23169;SDS011;11753;43.144;24.714;2023-04-24T05:16:59;19.83;;;11.30;;
23169;SDS011;11753;43.144;24.714;2023-04-24T05:18:01;19.13;;;11.82;;
23169;SDS011;11753;43.144;24.714;2023-04-24T05:19:02;18.23;;;12.18;;
23169;SDS011;11753;43.144;24.714;2023-04-24T05:20:03;18.45;;;11.07;;
23169;SDS011;11753;43.144;24.714;2023-04-24T05:21:08;17.73;;;10.20;;
23169;SDS011;11753;43.144;24.714;2023-04-24T05:22:09;21.55;;;12.27;;
23169;SDS011;11753;43.144;24.714;2023-04-24T05:23:10;20.67;;;12.02;;
23169;SDS011;11753;43.144;24.714;2023-04-24T05:24:12;15.98;;;11.48;;
23169;SDS011;11753;43.144;24.714;2023-04-24T05:25:13;18.83;;;12.05;;
23169;SDS011;11753;43.144;24.714;2023-04-24T05:26:13;16.92;;;10.60;;
23169;SDS011;11753;43.144;24.714;2023-04-24T05:27:15;17.50;;;10.95;;
23169;SDS011;11753;43.144;24.714;2023-04-24T05:28:16;15.20;;;10.65;;
23169;SDS011;11753;43.144;24.714;2023-04-24T05:29:16;14.90;;;9.95;;
23169;SDS011;11753;43.144;24.714;2023-04-24T05:30:19;18.02;;;11.82;;
23169;SDS011;11753;43.144;24.714;2023-04-24T05:31:20;38.22;;;22.73;;
23169;SDS011;11753;43.144;24.714;2023-04-24T05:32:21;37.95;;;24.10;;
23169;SDS011;11753;43.144;24.714;2023-04-24T05:33:22;20.60;;;13.55;;
23169;SDS011;11753;43.144;24.714;2023-04-24T05:34:23;20.92;;;11.75;;
23169;SDS011;11753;43.144;24.714;2023-04-24T05:35:24;17.05;;;11.68;;
23169;SDS011;11753;43.144;24.714;2023-04-24T05:36:25;18.17;;;11.30;;
23169;SDS011;11753;43.144;24.714;2023-04-24T05:37:27;18.35;;;12.15;;
23169;SDS011;11753;43.144;24.714;2023-04-24T05:38:27;17.85;;;12.20;;
23169;SDS011;11753;43.144;24.714;2023-04-24T05:39:30;19.52;;;12.88;;
23169;SDS011;11753;43.144;24.714;2023-04-24T05:40:31;17.45;;;11.43;;
23169;SDS011;11753;43.144;24.714;2023-04-24T05:41:32;18.70;;;12.75;;
23169;SDS011;11753;43.144;24.714;2023-04-24T05:42:33;20.02;;;12.77;;
23169;SDS011;11753;43.144;24.714;2023-04-24T05:43:34;17.67;;;11.32;;
23169;SDS011;11753;43.144;24.714;2023-04-24T05:44:35;17.65;;;11.75;;
23169;SDS011;11753;43.144;24.714;2023-04-24T05:45:35;17.60;;;12.07;;
23169;SDS011;11753;43.144;24.714;2023-04-24T05:46:37;17.20;;;12.23;;
23169;SDS011;11753;43.144;24.714;2023-04-24T05:47:38;16.98;;;12.07;;
23169;SDS011;11753;43.144;24.714;2023-04-24T05:48:38;21.27;;;13.02;;
23169;SDS011;11753;43.144;24.714;2023-04-24T05:49:39;17.40;;;11.98;;
23169;SDS011;11753;43.144;24.714;2023-04-24T05:50:40;17.98;;;12.73;;
23169;SDS011;11753;43.144;24.714;2023-04-24T05:51:40;19.40;;;12.25;;
23169;SDS011;11753;43.144;24.714;2023-04-24T05:52:42;17.67;;;12.05;;
23169;SDS011;11753;43.144;24.714;2023-04-24T05:53:43;21.08;;;12.48;;
23169;SDS011;11753;43.144;24.714;2023-04-24T05:54:44;16.92;;;11.90;;
23169;SDS011;11753;43.144;24.714;2023-04-24T05:55:45;20.90;;;12.60;;
23169;SDS011;11753;43.144;24.714;2023-04-24T05:56:46;20.55;;;12.50;;
23169;SDS011;11753;43.144;24.714;2023-04-24T05:57:47;19.05;;;12.55;;
23169;SDS011;11753;43.144;24.714;2023-04-24T05:58:48;18.23;;;11.75;;
23169;SDS011;11753;43.144;24.714;2023-04-24T05:59:49;16.67;;;12.45;;